This is the latest recevied weather packets stored in our database for station/object RUSSARO. If no packets are shown the sender has not sent any weather packets the latest 10 day(s).
| Time | Temp. | Humidity | Pressure | Rain* | Wind** | Luminosity | Snow |
|---|---|---|---|---|---|---|---|
| 1777554416 | 10.56° C | 67% | 1022.3 hPa | 0 mm | - | - | - |
| 1777553216 | 11.11° C | 66% | 1022.4 hPa | 0 mm | - | - | - |
| 1777552017 | 10.56° C | 66% | 1022.3 hPa | 0 mm | - | - | - |
| 1777550816 | 10.56° C | 66% | 1022.3 hPa | 0 mm | - | - | - |
| 1777549617 | 10° C | 70% | 1022.2 hPa | 0 mm | - | - | - |
| 1777548416 | 10.56° C | 69% | 1022.4 hPa | 0 mm | - | - | - |
| 1777547216 | 10° C | 70% | 1022.6 hPa | 0 mm | - | - | - |
| 1777546016 | 10° C | 72% | 1022.6 hPa | 0 mm | - | - | - |
| 1777544817 | 8.89° C | 75% | 1022.7 hPa | 0 mm | - | - | - |
| 1777543616 | 8.33° C | 78% | 1022.8 hPa | 0 mm | - | - | - |
| 1777542416 | 8.89° C | 77% | 1022.6 hPa | 0 mm | - | - | - |
| 1777541216 | 8.33° C | 79% | 1022.7 hPa | 0 mm | - | - | - |
| 1777540016 | 7.78° C | 82% | 1022.7 hPa | 0 mm | - | - | - |
| 1777538816 | 7.22° C | 85% | 1022.8 hPa | 0 mm | - | - | - |
| 1777537616 | 7.78° C | 84% | 1022.8 hPa | 0 mm | - | - | - |
| 1777536416 | 7.22° C | 85% | 1022.9 hPa | 0 mm | - | - | - |
| 1777535216 | 6.67° C | 87% | 1022.9 hPa | 0 mm | - | - | - |
| 1777534016 | 6.11° C | 87% | 1022.9 hPa | 0 mm | - | - | - |
| 1777532816 | 6.67° C | 87% | 1022.8 hPa | 0 mm | - | - | - |
| 1777531616 | 6.11° C | 88% | 1023 hPa | 0 mm | - | - | - |
| 1777530416 | 6.11° C | 88% | 1023 hPa | 0 mm | - | - | - |
| 1777529215 | 5.56° C | 88% | 1023 hPa | 0 mm | - | - | - |
| 1777528015 | 5.56° C | 90% | 1023.1 hPa | 0 mm | - | - | - |
| 1777526816 | 5° C | 89% | 1023.1 hPa | 0 mm | - | - | - |
| 1777525615 | 5° C | 91% | 1023 hPa | 0 mm | - | - | - |
* Rain latest hour (hover to see other rain measurements)
** Current wind speed in m/s (hover to see current wind gust speed)